sensor_id;sensor_type;location;lat;lon;timestamp;P1;durP1;ratioP1;P2;durP2;ratioP2
33826;SDS011;20128;45.582;5.298;2022-12-07T00:01:09;45.55;;;20.10;;
33826;SDS011;20128;45.582;5.298;2022-12-07T00:03:40;41.28;;;18.42;;
33826;SDS011;20128;45.582;5.298;2022-12-07T00:06:07;45.85;;;19.75;;
33826;SDS011;20128;45.582;5.298;2022-12-07T00:08:35;54.65;;;23.92;;
33826;SDS011;20128;45.582;5.298;2022-12-07T00:11:10;51.55;;;22.60;;
33826;SDS011;20128;45.582;5.298;2022-12-07T00:13:38;47.20;;;21.17;;
33826;SDS011;20128;45.582;5.298;2022-12-07T00:16:08;47.85;;;21.50;;
33826;SDS011;20128;45.582;5.298;2022-12-07T00:18:36;45.80;;;21.70;;
33826;SDS011;20128;45.582;5.298;2022-12-07T00:21:02;46.50;;;21.05;;
33826;SDS011;20128;45.582;5.298;2022-12-07T00:23:31;47.83;;;21.83;;
33826;SDS011;20128;45.582;5.298;2022-12-07T00:26:08;45.35;;;21.05;;
33826;SDS011;20128;45.582;5.298;2022-12-07T00:28:35;49.42;;;19.73;;
33826;SDS011;20128;45.582;5.298;2022-12-07T00:31:05;52.85;;;20.80;;
33826;SDS011;20128;45.582;5.298;2022-12-07T00:33:33;44.40;;;19.52;;
33826;SDS011;20128;45.582;5.298;2022-12-07T00:35:59;48.60;;;21.08;;
33826;SDS011;20128;45.582;5.298;2022-12-07T00:38:27;53.78;;;22.55;;
33826;SDS011;20128;45.582;5.298;2022-12-07T00:40:58;48.50;;;19.52;;
33826;SDS011;20128;45.582;5.298;2022-12-07T00:43:25;44.88;;;19.52;;
33826;SDS011;20128;45.582;5.298;2022-12-07T00:45:52;46.72;;;19.85;;
33826;SDS011;20128;45.582;5.298;2022-12-07T00:48:18;49.45;;;20.75;;
33826;SDS011;20128;45.582;5.298;2022-12-07T00:50:44;44.53;;;19.45;;
33826;SDS011;20128;45.582;5.298;2022-12-07T00:53:10;45.25;;;19.95;;
33826;SDS011;20128;45.582;5.298;2022-12-07T00:55:35;40.65;;;17.88;;
33826;SDS011;20128;45.582;5.298;2022-12-07T00:58:02;45.35;;;20.55;;
33826;SDS011;20128;45.582;5.298;2022-12-07T01:00:27;52.65;;;20.50;;
33826;SDS011;20128;45.582;5.298;2022-12-07T01:02:54;48.45;;;21.58;;
33826;SDS011;20128;45.582;5.298;2022-12-07T01:05:19;51.20;;;22.15;;
33826;SDS011;20128;45.582;5.298;2022-12-07T01:07:45;49.05;;;21.30;;
33826;SDS011;20128;45.582;5.298;2022-12-07T01:10:12;45.00;;;20.02;;
33826;SDS011;20128;45.582;5.298;2022-12-07T01:12:38;43.60;;;20.33;;
33826;SDS011;20128;45.582;5.298;2022-12-07T01:15:04;43.58;;;20.10;;
33826;SDS011;20128;45.582;5.298;2022-12-07T01:17:31;46.40;;;21.20;;
33826;SDS011;20128;45.582;5.298;2022-12-07T01:19:56;45.67;;;20.02;;
33826;SDS011;20128;45.582;5.298;2022-12-07T01:22:22;47.08;;;20.70;;
33826;SDS011;20128;45.582;5.298;2022-12-07T01:24:48;45.83;;;20.10;;
33826;SDS011;20128;45.582;5.298;2022-12-07T01:27:13;44.42;;;19.95;;
33826;SDS011;20128;45.582;5.298;2022-12-07T01:29:39;40.28;;;18.27;;
33826;SDS011;20128;45.582;5.298;2022-12-07T01:32:05;51.65;;;21.20;;
33826;SDS011;20128;45.582;5.298;2022-12-07T01:34:31;49.47;;;21.48;;
33826;SDS011;20128;45.582;5.298;2022-12-07T01:36:56;47.53;;;20.17;;
33826;SDS011;20128;45.582;5.298;2022-12-07T01:39:22;46.78;;;20.25;;
33826;SDS011;20128;45.582;5.298;2022-12-07T01:41:48;49.58;;;20.80;;
33826;SDS011;20128;45.582;5.298;2022-12-07T01:46:53;47.40;;;21.10;;
33826;SDS011;20128;45.582;5.298;2022-12-07T01:49:23;51.25;;;20.85;;
33826;SDS011;20128;45.582;5.298;2022-12-07T01:51:55;45.55;;;20.52;;
33826;SDS011;20128;45.582;5.298;2022-12-07T01:54:27;46.53;;;19.92;;
33826;SDS011;20128;45.582;5.298;2022-12-07T01:56:53;47.95;;;21.75;;
33826;SDS011;20128;45.582;5.298;2022-12-07T01:59:21;46.05;;;20.30;;
33826;SDS011;20128;45.582;5.298;2022-12-07T02:01:50;46.78;;;18.63;;
33826;SDS011;20128;45.582;5.298;2022-12-07T02:04:18;48.78;;;18.98;;
33826;SDS011;20128;45.582;5.298;2022-12-07T02:06:44;44.97;;;19.30;;
33826;SDS011;20128;45.582;5.298;2022-12-07T02:09:11;49.08;;;20.75;;
33826;SDS011;20128;45.582;5.298;2022-12-07T02:11:37;45.17;;;18.55;;
33826;SDS011;20128;45.582;5.298;2022-12-07T02:14:03;46.58;;;18.55;;
33826;SDS011;20128;45.582;5.298;2022-12-07T02:22:38;45.13;;;19.73;;
33826;SDS011;20128;45.582;5.298;2022-12-07T02:27:43;46.65;;;18.58;;
33826;SDS011;20128;45.582;5.298;2022-12-07T02:30:22;50.47;;;19.92;;
33826;SDS011;20128;45.582;5.298;2022-12-07T02:41:07;54.97;;;22.30;;
33826;SDS011;20128;45.582;5.298;2022-12-07T02:43:45;36.00;;;15.30;;
33826;SDS011;20128;45.582;5.298;2022-12-07T02:46:17;59.47;;;20.88;;
33826;SDS011;20128;45.582;5.298;2022-12-07T02:49:02;62.97;;;23.77;;
33826;SDS011;20128;45.582;5.298;2022-12-07T02:51:32;51.97;;;21.58;;
33826;SDS011;20128;45.582;5.298;2022-12-07T02:53:58;53.83;;;21.02;;
33826;SDS011;20128;45.582;5.298;2022-12-07T02:56:43;56.58;;;22.00;;
33826;SDS011;20128;45.582;5.298;2022-12-07T03:12:44;37.90;;;16.90;;
33826;SDS011;20128;45.582;5.298;2022-12-07T03:15:16;36.25;;;17.48;;
33826;SDS011;20128;45.582;5.298;2022-12-07T03:17:56;41.55;;;18.05;;
33826;SDS011;20128;45.582;5.298;2022-12-07T03:20:25;40.20;;;17.15;;
33826;SDS011;20128;45.582;5.298;2022-12-07T03:22:54;36.95;;;15.68;;
33826;SDS011;20128;45.582;5.298;2022-12-07T03:25:21;42.95;;;17.92;;
33826;SDS011;20128;45.582;5.298;2022-12-07T03:30:28;36.88;;;16.67;;
33826;SDS011;20128;45.582;5.298;2022-12-07T03:33:20;36.78;;;16.75;;
33826;SDS011;20128;45.582;5.298;2022-12-07T03:38:36;40.38;;;17.17;;
33826;SDS011;20128;45.582;5.298;2022-12-07T03:43:33;99.40;;;33.60;;
33826;SDS011;20128;45.582;5.298;2022-12-07T03:46:47;193.90;;;53.53;;
33826;SDS011;20128;45.582;5.298;2022-12-07T03:51:47;120.10;;;36.50;;
33826;SDS011;20128;45.582;5.298;2022-12-07T03:54:34;104.53;;;32.67;;
33826;SDS011;20128;45.582;5.298;2022-12-07T03:57:04;50.88;;;20.92;;
33826;SDS011;20128;45.582;5.298;2022-12-07T03:59:31;50.60;;;19.67;;
33826;SDS011;20128;45.582;5.298;2022-12-07T04:02:02;39.85;;;18.20;;
33826;SDS011;20128;45.582;5.298;2022-12-07T04:04:29;41.80;;;18.50;;
33826;SDS011;20128;45.582;5.298;2022-12-07T04:06:55;43.40;;;17.63;;
33826;SDS011;20128;45.582;5.298;2022-12-07T04:09:20;38.83;;;17.40;;
33826;SDS011;20128;45.582;5.298;2022-12-07T04:11:46;36.85;;;16.95;;
33826;SDS011;20128;45.582;5.298;2022-12-07T04:14:12;40.30;;;18.27;;
33826;SDS011;20128;45.582;5.298;2022-12-07T04:16:44;40.85;;;17.63;;
33826;SDS011;20128;45.582;5.298;2022-12-07T04:19:10;41.53;;;17.52;;
33826;SDS011;20128;45.582;5.298;2022-12-07T04:21:36;41.47;;;18.08;;
33826;SDS011;20128;45.582;5.298;2022-12-07T04:24:02;46.83;;;17.55;;
33826;SDS011;20128;45.582;5.298;2022-12-07T04:26:28;35.20;;;16.15;;
33826;SDS011;20128;45.582;5.298;2022-12-07T04:28:54;40.15;;;16.98;;
33826;SDS011;20128;45.582;5.298;2022-12-07T04:31:19;39.63;;;16.88;;
33826;SDS011;20128;45.582;5.298;2022-12-07T04:33:45;41.20;;;17.27;;
33826;SDS011;20128;45.582;5.298;2022-12-07T04:36:10;35.60;;;15.93;;
33826;SDS011;20128;45.582;5.298;2022-12-07T04:38:36;40.15;;;17.83;;
33826;SDS011;20128;45.582;5.298;2022-12-07T04:41:06;40.47;;;17.20;;
33826;SDS011;20128;45.582;5.298;2022-12-07T04:43:32;41.03;;;16.88;;
33826;SDS011;20128;45.582;5.298;2022-12-07T04:45:58;38.47;;;16.40;;
33826;SDS011;20128;45.582;5.298;2022-12-07T04:48:24;40.33;;;16.95;;
33826;SDS011;20128;45.582;5.298;2022-12-07T04:50:50;39.03;;;17.25;;
33826;SDS011;20128;45.582;5.298;2022-12-07T04:53:16;42.75;;;17.92;;
33826;SDS011;20128;45.582;5.298;2022-12-07T04:55:41;41.97;;;17.75;;
33826;SDS011;20128;45.582;5.298;2022-12-07T04:58:07;38.42;;;16.27;;
33826;SDS011;20128;45.582;5.298;2022-12-07T05:00:33;43.50;;;18.73;;
33826;SDS011;20128;45.582;5.298;2022-12-07T05:02:58;45.38;;;19.20;;
33826;SDS011;20128;45.582;5.298;2022-12-07T05:05:24;46.63;;;18.70;;
33826;SDS011;20128;45.582;5.298;2022-12-07T05:07:50;47.03;;;17.77;;
33826;SDS011;20128;45.582;5.298;2022-12-07T05:10:15;45.70;;;19.75;;
33826;SDS011;20128;45.582;5.298;2022-12-07T05:12:42;47.55;;;19.55;;
33826;SDS011;20128;45.582;5.298;2022-12-07T05:15:07;47.22;;;18.48;;
33826;SDS011;20128;45.582;5.298;2022-12-07T05:17:33;51.63;;;20.02;;
33826;SDS011;20128;45.582;5.298;2022-12-07T05:19:59;44.05;;;17.00;;
33826;SDS011;20128;45.582;5.298;2022-12-07T05:22:25;43.72;;;17.02;;
33826;SDS011;20128;45.582;5.298;2022-12-07T05:24:53;45.47;;;18.67;;
33826;SDS011;20128;45.582;5.298;2022-12-07T05:27:19;52.15;;;18.65;;
33826;SDS011;20128;45.582;5.298;2022-12-07T05:29:45;45.60;;;18.02;;
33826;SDS011;20128;45.582;5.298;2022-12-07T05:32:11;45.80;;;18.92;;
33826;SDS011;20128;45.582;5.298;2022-12-07T05:34:36;43.95;;;17.40;;
33826;SDS011;20128;45.582;5.298;2022-12-07T05:37:02;51.15;;;19.83;;
33826;SDS011;20128;45.582;5.298;2022-12-07T05:39:28;48.97;;;20.15;;
33826;SDS011;20128;45.582;5.298;2022-12-07T05:41:53;47.47;;;20.90;;
33826;SDS011;20128;45.582;5.298;2022-12-07T05:44:38;49.10;;;19.50;;
33826;SDS011;20128;45.582;5.298;2022-12-07T05:47:04;54.67;;;21.17;;
33826;SDS011;20128;45.582;5.298;2022-12-07T05:49:30;48.83;;;20.13;;
33826;SDS011;20128;45.582;5.298;2022-12-07T05:51:56;48.53;;;19.85;;
33826;SDS011;20128;45.582;5.298;2022-12-07T05:54:22;51.78;;;20.73;;
33826;SDS011;20128;45.582;5.298;2022-12-07T05:56:48;49.75;;;20.80;;
33826;SDS011;20128;45.582;5.298;2022-12-07T05:59:14;53.42;;;21.17;;
33826;SDS011;20128;45.582;5.298;2022-12-07T06:01:56;52.33;;;21.33;;
33826;SDS011;20128;45.582;5.298;2022-12-07T06:04:33;51.92;;;20.65;;
33826;SDS011;20128;45.582;5.298;2022-12-07T06:07:02;50.78;;;20.88;;
33826;SDS011;20128;45.582;5.298;2022-12-07T06:09:29;47.85;;;20.15;;
33826;SDS011;20128;45.582;5.298;2022-12-07T06:11:55;49.45;;;19.52;;
33826;SDS011;20128;45.582;5.298;2022-12-07T06:14:40;48.05;;;20.08;;
33826;SDS011;20128;45.582;5.298;2022-12-07T06:17:06;49.03;;;20.30;;
33826;SDS011;20128;45.582;5.298;2022-12-07T06:19:31;48.28;;;20.88;;
33826;SDS011;20128;45.582;5.298;2022-12-07T06:21:57;48.75;;;19.27;;
33826;SDS011;20128;45.582;5.298;2022-12-07T06:24:23;50.65;;;19.63;;
33826;SDS011;20128;45.582;5.298;2022-12-07T06:26:49;52.90;;;20.38;;
33826;SDS011;20128;45.582;5.298;2022-12-07T06:29:15;58.40;;;21.58;;
33826;SDS011;20128;45.582;5.298;2022-12-07T06:31:42;57.22;;;20.42;;
33826;SDS011;20128;45.582;5.298;2022-12-07T06:34:11;57.65;;;21.23;;
33826;SDS011;20128;45.582;5.298;2022-12-07T06:36:39;56.22;;;20.95;;
33826;SDS011;20128;45.582;5.298;2022-12-07T06:39:05;53.90;;;19.75;;
33826;SDS011;20128;45.582;5.298;2022-12-07T06:41:32;34.38;;;14.75;;
33826;SDS011;20128;45.582;5.298;2022-12-07T06:43:58;44.83;;;16.90;;
33826;SDS011;20128;45.582;5.298;2022-12-07T06:46:24;57.40;;;22.83;;
33826;SDS011;20128;45.582;5.298;2022-12-07T06:48:49;65.07;;;22.58;;
33826;SDS011;20128;45.582;5.298;2022-12-07T06:51:15;86.00;;;26.52;;
33826;SDS011;20128;45.582;5.298;2022-12-07T06:53:41;73.60;;;25.95;;
33826;SDS011;20128;45.582;5.298;2022-12-07T06:56:07;80.40;;;28.50;;
33826;SDS011;20128;45.582;5.298;2022-12-07T06:58:32;85.75;;;29.60;;
33826;SDS011;20128;45.582;5.298;2022-12-07T07:00:58;86.07;;;29.95;;
33826;SDS011;20128;45.582;5.298;2022-12-07T07:03:24;81.10;;;28.20;;
33826;SDS011;20128;45.582;5.298;2022-12-07T07:05:49;67.03;;;21.98;;
33826;SDS011;20128;45.582;5.298;2022-12-07T07:08:15;45.42;;;18.08;;
33826;SDS011;20128;45.582;5.298;2022-12-07T07:10:41;38.03;;;16.83;;
33826;SDS011;20128;45.582;5.298;2022-12-07T07:13:07;36.38;;;16.50;;
33826;SDS011;20128;45.582;5.298;2022-12-07T07:15:33;41.10;;;17.23;;
33826;SDS011;20128;45.582;5.298;2022-12-07T07:17:59;36.95;;;16.45;;
33826;SDS011;20128;45.582;5.298;2022-12-07T07:20:25;39.35;;;15.50;;
33826;SDS011;20128;45.582;5.298;2022-12-07T07:22:55;35.75;;;16.33;;
33826;SDS011;20128;45.582;5.298;2022-12-07T07:25:21;38.70;;;16.00;;
33826;SDS011;20128;45.582;5.298;2022-12-07T07:27:47;36.67;;;16.70;;
33826;SDS011;20128;45.582;5.298;2022-12-07T07:30:12;37.05;;;15.35;;
33826;SDS011;20128;45.582;5.298;2022-12-07T07:32:38;33.47;;;14.57;;
33826;SDS011;20128;45.582;5.298;2022-12-07T07:35:04;36.47;;;16.42;;
33826;SDS011;20128;45.582;5.298;2022-12-07T07:37:30;28.42;;;13.88;;
33826;SDS011;20128;45.582;5.298;2022-12-07T07:39:56;32.80;;;14.93;;
33826;SDS011;20128;45.582;5.298;2022-12-07T07:42:21;31.20;;;13.43;;
33826;SDS011;20128;45.582;5.298;2022-12-07T07:44:47;30.83;;;13.25;;
33826;SDS011;20128;45.582;5.298;2022-12-07T07:47:13;30.95;;;13.85;;
33826;SDS011;20128;45.582;5.298;2022-12-07T07:49:38;36.88;;;15.98;;
33826;SDS011;20128;45.582;5.298;2022-12-07T07:52:07;37.10;;;16.60;;
33826;SDS011;20128;45.582;5.298;2022-12-07T07:54:33;33.45;;;15.00;;
33826;SDS011;20128;45.582;5.298;2022-12-07T07:56:58;37.45;;;16.30;;
33826;SDS011;20128;45.582;5.298;2022-12-07T07:59:24;40.03;;;17.08;;
33826;SDS011;20128;45.582;5.298;2022-12-07T08:01:50;40.63;;;17.02;;
33826;SDS011;20128;45.582;5.298;2022-12-07T08:04:16;39.85;;;17.02;;
33826;SDS011;20128;45.582;5.298;2022-12-07T08:06:41;37.72;;;16.38;;
33826;SDS011;20128;45.582;5.298;2022-12-07T08:09:08;33.55;;;14.80;;
33826;SDS011;20128;45.582;5.298;2022-12-07T08:11:34;37.20;;;15.45;;
33826;SDS011;20128;45.582;5.298;2022-12-07T08:14:01;40.13;;;14.68;;
33826;SDS011;20128;45.582;5.298;2022-12-07T08:16:26;41.88;;;17.52;;
33826;SDS011;20128;45.582;5.298;2022-12-07T08:18:52;39.03;;;17.77;;
33826;SDS011;20128;45.582;5.298;2022-12-07T08:21:18;45.33;;;18.92;;
33826;SDS011;20128;45.582;5.298;2022-12-07T08:23:43;39.83;;;16.13;;
33826;SDS011;20128;45.582;5.298;2022-12-07T08:26:10;41.63;;;18.67;;
33826;SDS011;20128;45.582;5.298;2022-12-07T08:28:37;40.75;;;16.38;;
33826;SDS011;20128;45.582;5.298;2022-12-07T08:31:06;41.97;;;18.50;;
33826;SDS011;20128;45.582;5.298;2022-12-07T08:33:34;36.95;;;16.00;;
33826;SDS011;20128;45.582;5.298;2022-12-07T08:36:01;38.42;;;15.23;;
33826;SDS011;20128;45.582;5.298;2022-12-07T08:38:28;31.50;;;14.05;;
33826;SDS011;20128;45.582;5.298;2022-12-07T08:40:54;30.40;;;13.55;;
33826;SDS011;20128;45.582;5.298;2022-12-07T08:43:21;36.15;;;14.85;;
33826;SDS011;20128;45.582;5.298;2022-12-07T08:45:47;31.75;;;12.38;;
33826;SDS011;20128;45.582;5.298;2022-12-07T08:48:17;32.28;;;13.77;;
33826;SDS011;20128;45.582;5.298;2022-12-07T08:50:46;36.50;;;13.88;;
33826;SDS011;20128;45.582;5.298;2022-12-07T08:53:13;28.45;;;12.60;;
33826;SDS011;20128;45.582;5.298;2022-12-07T08:55:39;37.05;;;17.17;;
33826;SDS011;20128;45.582;5.298;2022-12-07T08:58:05;27.95;;;11.93;;
33826;SDS011;20128;45.582;5.298;2022-12-07T09:00:30;42.88;;;19.77;;
33826;SDS011;20128;45.582;5.298;2022-12-07T09:02:56;45.60;;;18.67;;
33826;SDS011;20128;45.582;5.298;2022-12-07T09:05:22;33.72;;;16.33;;
33826;SDS011;20128;45.582;5.298;2022-12-07T09:07:48;29.90;;;11.23;;
33826;SDS011;20128;45.582;5.298;2022-12-07T09:10:19;33.65;;;14.93;;
33826;SDS011;20128;45.582;5.298;2022-12-07T09:12:44;32.75;;;14.77;;
33826;SDS011;20128;45.582;5.298;2022-12-07T09:15:10;58.63;;;27.65;;
33826;SDS011;20128;45.582;5.298;2022-12-07T09:17:36;90.75;;;30.85;;
33826;SDS011;20128;45.582;5.298;2022-12-07T09:20:03;44.40;;;15.73;;
33826;SDS011;20128;45.582;5.298;2022-12-07T09:22:30;32.17;;;13.00;;
33826;SDS011;20128;45.582;5.298;2022-12-07T09:24:57;31.75;;;14.35;;
33826;SDS011;20128;45.582;5.298;2022-12-07T09:27:23;39.05;;;17.45;;
33826;SDS011;20128;45.582;5.298;2022-12-07T09:29:49;39.13;;;14.98;;
33826;SDS011;20128;45.582;5.298;2022-12-07T09:32:15;39.97;;;15.75;;
33826;SDS011;20128;45.582;5.298;2022-12-07T09:34:41;32.17;;;13.77;;
33826;SDS011;20128;45.582;5.298;2022-12-07T09:37:07;31.08;;;13.45;;
33826;SDS011;20128;45.582;5.298;2022-12-07T09:39:33;27.77;;;12.07;;
33826;SDS011;20128;45.582;5.298;2022-12-07T09:41:58;21.90;;;11.13;;
33826;SDS011;20128;45.582;5.298;2022-12-07T09:44:28;32.25;;;12.65;;
33826;SDS011;20128;45.582;5.298;2022-12-07T09:46:54;27.50;;;11.43;;
33826;SDS011;20128;45.582;5.298;2022-12-07T09:49:22;30.02;;;13.23;;
33826;SDS011;20128;45.582;5.298;2022-12-07T09:51:59;35.25;;;15.07;;
33826;SDS011;20128;45.582;5.298;2022-12-07T09:54:43;36.10;;;16.27;;
33826;SDS011;20128;45.582;5.298;2022-12-07T09:57:14;35.23;;;15.33;;
33826;SDS011;20128;45.582;5.298;2022-12-07T09:59:41;35.35;;;15.85;;
33826;SDS011;20128;45.582;5.298;2022-12-07T10:02:33;33.30;;;14.65;;
33826;SDS011;20128;45.582;5.298;2022-12-07T10:05:07;32.63;;;14.05;;
33826;SDS011;20128;45.582;5.298;2022-12-07T10:07:43;32.08;;;14.30;;
33826;SDS011;20128;45.582;5.298;2022-12-07T10:10:17;37.20;;;14.32;;
33826;SDS011;20128;45.582;5.298;2022-12-07T10:12:55;31.67;;;14.48;;
33826;SDS011;20128;45.582;5.298;2022-12-07T10:15:22;33.97;;;14.98;;
33826;SDS011;20128;45.582;5.298;2022-12-07T10:17:51;34.28;;;13.63;;
33826;SDS011;20128;45.582;5.298;2022-12-07T10:20:24;33.38;;;14.48;;
33826;SDS011;20128;45.582;5.298;2022-12-07T10:23:04;32.25;;;13.90;;
33826;SDS011;20128;45.582;5.298;2022-12-07T10:25:38;32.08;;;14.75;;
33826;SDS011;20128;45.582;5.298;2022-12-07T10:30:46;33.40;;;14.98;;
33826;SDS011;20128;45.582;5.298;2022-12-07T10:33:28;33.70;;;13.95;;
33826;SDS011;20128;45.582;5.298;2022-12-07T10:35:54;28.23;;;13.35;;
33826;SDS011;20128;45.582;5.298;2022-12-07T10:38:20;35.47;;;14.68;;
33826;SDS011;20128;45.582;5.298;2022-12-07T10:40:46;29.10;;;13.30;;
33826;SDS011;20128;45.582;5.298;2022-12-07T10:50:59;26.98;;;12.35;;
33826;SDS011;20128;45.582;5.298;2022-12-07T11:04:59;26.63;;;13.07;;
33826;SDS011;20128;45.582;5.298;2022-12-07T11:16:04;26.60;;;12.45;;
33826;SDS011;20128;45.582;5.298;2022-12-07T11:21:09;26.67;;;12.50;;
33826;SDS011;20128;45.582;5.298;2022-12-07T11:26:14;28.50;;;13.50;;
33826;SDS011;20128;45.582;5.298;2022-12-07T11:34:39;25.10;;;12.15;;
33826;SDS011;20128;45.582;5.298;2022-12-07T11:37:16;25.50;;;12.20;;
33826;SDS011;20128;45.582;5.298;2022-12-07T11:39:52;30.20;;;13.25;;
33826;SDS011;20128;45.582;5.298;2022-12-07T11:47:40;27.05;;;14.27;;
33826;SDS011;20128;45.582;5.298;2022-12-07T11:52:58;28.83;;;14.70;;
33826;SDS011;20128;45.582;5.298;2022-12-07T11:55:38;34.15;;;16.10;;
33826;SDS011;20128;45.582;5.298;2022-12-07T12:03:56;34.85;;;15.40;;
33826;SDS011;20128;45.582;5.298;2022-12-07T12:06:28;30.17;;;14.63;;
33826;SDS011;20128;45.582;5.298;2022-12-07T12:14:22;31.10;;;15.60;;
33826;SDS011;20128;45.582;5.298;2022-12-07T12:22:00;28.35;;;14.90;;
33826;SDS011;20128;45.582;5.298;2022-12-07T12:24:38;34.78;;;16.20;;
33826;SDS011;20128;45.582;5.298;2022-12-07T12:27:06;33.25;;;15.32;;
33826;SDS011;20128;45.582;5.298;2022-12-07T12:42:46;33.25;;;15.30;;
33826;SDS011;20128;45.582;5.298;2022-12-07T12:47:57;31.77;;;14.68;;
33826;SDS011;20128;45.582;5.298;2022-12-07T12:50:33;30.52;;;13.73;;
33826;SDS011;20128;45.582;5.298;2022-12-07T12:56:02;35.22;;;15.25;;
33826;SDS011;20128;45.582;5.298;2022-12-07T13:01:57;28.92;;;14.15;;
33826;SDS011;20128;45.582;5.298;2022-12-07T13:18:23;30.45;;;14.57;;
33826;SDS011;20128;45.582;5.298;2022-12-07T13:23:18;31.38;;;14.57;;
33826;SDS011;20128;45.582;5.298;2022-12-07T13:28:40;31.63;;;14.55;;
33826;SDS011;20128;45.582;5.298;2022-12-07T13:31:19;27.55;;;13.98;;
33826;SDS011;20128;45.582;5.298;2022-12-07T13:33:54;29.67;;;15.05;;
33826;SDS011;20128;45.582;5.298;2022-12-07T13:41:23;34.90;;;13.90;;
33826;SDS011;20128;45.582;5.298;2022-12-07T13:44:00;30.77;;;13.55;;
33826;SDS011;20128;45.582;5.298;2022-12-07T13:51:46;28.02;;;12.90;;
33826;SDS011;20128;45.582;5.298;2022-12-07T13:54:12;31.45;;;14.70;;
33826;SDS011;20128;45.582;5.298;2022-12-07T13:56:39;29.58;;;14.07;;
33826;SDS011;20128;45.582;5.298;2022-12-07T13:59:10;27.65;;;13.88;;
33826;SDS011;20128;45.582;5.298;2022-12-07T14:01:40;26.58;;;12.77;;
33826;SDS011;20128;45.582;5.298;2022-12-07T14:06:54;28.23;;;13.93;;
33826;SDS011;20128;45.582;5.298;2022-12-07T14:09:21;31.95;;;14.30;;
33826;SDS011;20128;45.582;5.298;2022-12-07T14:11:49;26.00;;;13.15;;
33826;SDS011;20128;45.582;5.298;2022-12-07T14:14:18;32.17;;;15.13;;
33826;SDS011;20128;45.582;5.298;2022-12-07T14:16:56;38.33;;;16.95;;
33826;SDS011;20128;45.582;5.298;2022-12-07T14:19:39;35.08;;;14.90;;
33826;SDS011;20128;45.582;5.298;2022-12-07T14:22:09;31.55;;;14.07;;
33826;SDS011;20128;45.582;5.298;2022-12-07T14:24:45;30.50;;;14.07;;
33826;SDS011;20128;45.582;5.298;2022-12-07T14:27:17;33.17;;;15.15;;
33826;SDS011;20128;45.582;5.298;2022-12-07T14:29:47;34.22;;;14.65;;
33826;SDS011;20128;45.582;5.298;2022-12-07T14:35:08;35.55;;;15.30;;
33826;SDS011;20128;45.582;5.298;2022-12-07T14:37:36;28.77;;;13.88;;
33826;SDS011;20128;45.582;5.298;2022-12-07T14:40:03;26.75;;;12.52;;
33826;SDS011;20128;45.582;5.298;2022-12-07T14:42:30;26.55;;;12.85;;
33826;SDS011;20128;45.582;5.298;2022-12-07T14:44:57;28.25;;;12.88;;
33826;SDS011;20128;45.582;5.298;2022-12-07T14:47:24;27.35;;;12.90;;
33826;SDS011;20128;45.582;5.298;2022-12-07T14:49:51;28.65;;;13.98;;
33826;SDS011;20128;45.582;5.298;2022-12-07T14:52:21;28.35;;;13.57;;
33826;SDS011;20128;45.582;5.298;2022-12-07T14:54:52;32.92;;;14.68;;
33826;SDS011;20128;45.582;5.298;2022-12-07T14:57:19;27.17;;;12.30;;
33826;SDS011;20128;45.582;5.298;2022-12-07T14:59:44;30.55;;;13.30;;
33826;SDS011;20128;45.582;5.298;2022-12-07T15:02:11;27.80;;;14.07;;
33826;SDS011;20128;45.582;5.298;2022-12-07T15:04:38;27.85;;;14.02;;
33826;SDS011;20128;45.582;5.298;2022-12-07T15:07:06;28.58;;;13.40;;
33826;SDS011;20128;45.582;5.298;2022-12-07T15:09:37;31.67;;;12.20;;
33826;SDS011;20128;45.582;5.298;2022-12-07T15:12:03;30.67;;;14.18;;
33826;SDS011;20128;45.582;5.298;2022-12-07T15:14:29;24.55;;;12.52;;
33826;SDS011;20128;45.582;5.298;2022-12-07T15:16:55;29.02;;;13.85;;
33826;SDS011;20128;45.582;5.298;2022-12-07T15:19:23;29.17;;;14.60;;
33826;SDS011;20128;45.582;5.298;2022-12-07T15:21:52;27.77;;;14.40;;
33826;SDS011;20128;45.582;5.298;2022-12-07T15:24:18;26.13;;;13.68;;
33826;SDS011;20128;45.582;5.298;2022-12-07T15:26:44;30.63;;;15.15;;
33826;SDS011;20128;45.582;5.298;2022-12-07T15:29:10;35.47;;;16.15;;
33826;SDS011;20128;45.582;5.298;2022-12-07T15:31:36;34.83;;;14.98;;
33826;SDS011;20128;45.582;5.298;2022-12-07T15:36:28;31.77;;;13.77;;
33826;SDS011;20128;45.582;5.298;2022-12-07T15:38:56;29.70;;;13.88;;
33826;SDS011;20128;45.582;5.298;2022-12-07T15:41:22;30.90;;;13.65;;
33826;SDS011;20128;45.582;5.298;2022-12-07T15:43:47;29.73;;;13.70;;
33826;SDS011;20128;45.582;5.298;2022-12-07T15:46:32;34.80;;;15.88;;
33826;SDS011;20128;45.582;5.298;2022-12-07T15:48:59;36.78;;;15.40;;
33826;SDS011;20128;45.582;5.298;2022-12-07T15:51:25;32.88;;;16.33;;
33826;SDS011;20128;45.582;5.298;2022-12-07T15:53:52;47.70;;;18.08;;
33826;SDS011;20128;45.582;5.298;2022-12-07T15:56:18;36.88;;;16.48;;
33826;SDS011;20128;45.582;5.298;2022-12-07T15:58:44;35.92;;;16.05;;
33826;SDS011;20128;45.582;5.298;2022-12-07T16:01:13;34.97;;;16.20;;
33826;SDS011;20128;45.582;5.298;2022-12-07T16:03:40;33.60;;;16.00;;
33826;SDS011;20128;45.582;5.298;2022-12-07T16:06:07;35.53;;;17.27;;
33826;SDS011;20128;45.582;5.298;2022-12-07T16:08:33;31.15;;;14.75;;
33826;SDS011;20128;45.582;5.298;2022-12-07T16:10:58;34.40;;;15.30;;
33826;SDS011;20128;45.582;5.298;2022-12-07T16:13:24;32.22;;;15.48;;
33826;SDS011;20128;45.582;5.298;2022-12-07T16:15:50;33.88;;;15.57;;
33826;SDS011;20128;45.582;5.298;2022-12-07T16:18:16;28.92;;;14.63;;
33826;SDS011;20128;45.582;5.298;2022-12-07T16:20:41;30.40;;;15.27;;
33826;SDS011;20128;45.582;5.298;2022-12-07T16:23:08;35.50;;;15.25;;
33826;SDS011;20128;45.582;5.298;2022-12-07T16:25:33;34.05;;;15.68;;
33826;SDS011;20128;45.582;5.298;2022-12-07T16:27:59;28.45;;;13.70;;
33826;SDS011;20128;45.582;5.298;2022-12-07T16:30:24;36.78;;;15.27;;
33826;SDS011;20128;45.582;5.298;2022-12-07T16:32:50;34.83;;;15.98;;
33826;SDS011;20128;45.582;5.298;2022-12-07T16:35:16;34.05;;;17.13;;
33826;SDS011;20128;45.582;5.298;2022-12-07T16:37:42;30.70;;;14.88;;
33826;SDS011;20128;45.582;5.298;2022-12-07T16:40:08;41.35;;;13.95;;
33826;SDS011;20128;45.582;5.298;2022-12-07T16:42:35;32.20;;;14.38;;
33826;SDS011;20128;45.582;5.298;2022-12-07T16:45:01;27.83;;;12.85;;
33826;SDS011;20128;45.582;5.298;2022-12-07T16:47:28;31.70;;;14.02;;
33826;SDS011;20128;45.582;5.298;2022-12-07T16:49:53;35.65;;;14.63;;
33826;SDS011;20128;45.582;5.298;2022-12-07T16:52:20;33.70;;;15.68;;
33826;SDS011;20128;45.582;5.298;2022-12-07T16:54:46;30.65;;;14.57;;
33826;SDS011;20128;45.582;5.298;2022-12-07T16:57:13;32.95;;;14.98;;
33826;SDS011;20128;45.582;5.298;2022-12-07T16:59:40;33.78;;;15.63;;
33826;SDS011;20128;45.582;5.298;2022-12-07T17:02:06;31.33;;;14.73;;
33826;SDS011;20128;45.582;5.298;2022-12-07T17:04:33;27.95;;;14.95;;
33826;SDS011;20128;45.582;5.298;2022-12-07T17:06:59;35.22;;;16.17;;
33826;SDS011;20128;45.582;5.298;2022-12-07T17:09:25;34.30;;;15.35;;
33826;SDS011;20128;45.582;5.298;2022-12-07T17:11:50;29.95;;;15.40;;
33826;SDS011;20128;45.582;5.298;2022-12-07T17:14:16;39.25;;;17.02;;
33826;SDS011;20128;45.582;5.298;2022-12-07T17:17:01;39.95;;;19.88;;